createdAt,value
2018-07-30T00:03:29.017Z,3.00
2018-07-30T00:05:57.793Z,3.30
2018-07-30T00:08:26.633Z,3.33
2018-07-30T00:10:55.405Z,3.27
2018-07-30T00:13:24.181Z,2.93
2018-07-30T00:15:53.146Z,3.17
2018-07-30T00:18:22.256Z,3.43
2018-07-30T00:20:51.033Z,3.27
2018-07-30T00:23:19.884Z,4.17
2018-07-30T00:25:48.825Z,3.47
2018-07-30T00:28:17.637Z,3.40
2018-07-30T00:30:46.449Z,3.27
2018-07-30T00:33:15.214Z,3.77
2018-07-30T00:35:44.035Z,3.37
2018-07-30T00:38:12.600Z,3.47
2018-07-30T00:40:41.306Z,3.50
2018-07-30T00:43:10.057Z,3.47
2018-07-30T00:45:38.829Z,3.53
2018-07-30T00:48:07.675Z,3.77
2018-07-30T00:50:36.452Z,4.10
2018-07-30T00:53:05.048Z,3.67
2018-07-30T00:55:33.718Z,3.70
2018-07-30T00:58:02.477Z,3.77
2018-07-30T01:00:31.217Z,4.03
2018-07-30T01:03:00.010Z,4.10
2018-07-30T01:05:28.761Z,4.53
2018-07-30T01:07:57.652Z,3.70
2018-07-30T01:10:26.482Z,4.20
2018-07-30T01:12:55.274Z,3.83
2018-07-30T01:15:24.047Z,4.13
2018-07-30T01:17:52.721Z,4.17
2018-07-30T01:20:21.200Z,4.43
2018-07-30T01:22:49.693Z,4.17
2018-07-30T01:25:18.378Z,4.90
2018-07-30T01:27:47.649Z,4.80
2018-07-30T01:30:16.405Z,4.90
2018-07-30T01:32:45.421Z,4.43
2018-07-30T01:35:14.329Z,4.73
2018-07-30T01:37:43.332Z,4.37
2018-07-30T01:40:12.285Z,4.73
2018-07-30T01:42:41.169Z,4.67
2018-07-30T01:45:09.960Z,4.50
2018-07-30T01:47:38.845Z,4.73
2018-07-30T01:50:07.841Z,4.40
2018-07-30T01:52:36.593Z,4.77
2018-07-30T01:55:05.198Z,5.00
2018-07-30T01:57:33.955Z,4.37
2018-07-30T02:00:02.834Z,5.10
2018-07-30T02:02:33.097Z,4.20
2018-07-30T02:05:01.874Z,4.90
2018-07-30T02:07:30.671Z,4.37
2018-07-30T02:09:59.442Z,4.50
2018-07-30T02:12:28.033Z,4.67
2018-07-30T02:14:56.717Z,5.40
2018-07-30T02:17:25.401Z,5.10
2018-07-30T02:19:54.129Z,5.10
2018-07-30T02:22:22.952Z,4.50
2018-07-30T02:24:51.849Z,5.07
2018-07-30T02:27:20.610Z,5.10
2018-07-30T02:29:49.375Z,5.10
2018-07-30T02:32:18.174Z,5.60
2018-07-30T02:34:47.049Z,4.93
2018-07-30T02:37:15.806Z,5.30
2018-07-30T02:39:44.567Z,4.97
2018-07-30T02:42:13.377Z,5.10
2018-07-30T02:44:42.142Z,4.97
2018-07-30T02:47:10.974Z,5.07
2018-07-30T02:49:39.677Z,5.10
2018-07-30T02:52:08.376Z,5.10
2018-07-30T02:54:37.222Z,5.50
2018-07-30T02:57:06.007Z,4.77
2018-07-30T02:59:34.739Z,5.23
2018-07-30T03:02:03.517Z,5.07
2018-07-30T03:04:32.285Z,4.67
2018-07-30T03:07:01.089Z,4.87
2018-07-30T03:09:30.023Z,5.63
2018-07-30T03:11:58.790Z,5.10
2018-07-30T03:14:27.585Z,5.17
2018-07-30T03:16:56.442Z,4.80
2018-07-30T03:19:25.192Z,5.17
2018-07-30T03:21:53.913Z,5.30
2018-07-30T03:24:22.509Z,5.80
2018-07-30T03:26:51.290Z,4.77
2018-07-30T03:29:19.861Z,5.10
2018-07-30T03:31:48.670Z,5.37
2018-07-30T03:34:17.437Z,4.87
2018-07-30T03:36:46.183Z,5.47
2018-07-30T03:39:14.918Z,5.60
2018-07-30T03:41:43.609Z,4.90
2018-07-30T03:44:12.281Z,5.63
2018-07-30T03:46:40.908Z,5.47
2018-07-30T03:49:09.693Z,5.10
2018-07-30T03:51:38.454Z,5.67
2018-07-30T03:54:07.127Z,5.40
2018-07-30T03:56:35.900Z,5.20
2018-07-30T03:59:04.694Z,5.10
2018-07-30T04:01:33.522Z,5.20
2018-07-30T04:04:02.308Z,5.03
2018-07-30T04:06:31.178Z,5.97
2018-07-30T04:09:00.107Z,4.83
2018-07-30T04:11:28.883Z,5.67
2018-07-30T04:13:57.649Z,4.90
2018-07-30T04:16:26.228Z,5.20
2018-07-30T04:18:54.989Z,5.43
2018-07-30T04:21:23.749Z,4.90
2018-07-30T04:23:52.564Z,5.37
2018-07-30T04:26:21.353Z,5.37
2018-07-30T04:28:50.181Z,5.57
2018-07-30T04:31:19.069Z,5.93
2018-07-30T04:33:47.802Z,4.73
2018-07-30T04:36:16.828Z,5.20
2018-07-30T04:38:45.658Z,5.37
2018-07-30T04:41:14.617Z,5.27
2018-07-30T04:43:43.408Z,4.73
2018-07-30T04:46:12.195Z,5.90
2018-07-30T04:48:41.136Z,5.63
2018-07-30T04:51:10.003Z,5.83
2018-07-30T04:53:38.633Z,5.47
2018-07-30T04:56:07.503Z,5.37
2018-07-30T04:58:36.254Z,5.33
2018-07-30T05:01:05.042Z,5.83
2018-07-30T05:03:33.829Z,5.20
2018-07-30T05:06:02.594Z,5.20
2018-07-30T05:08:31.509Z,5.37
2018-07-30T05:11:00.362Z,6.00
2018-07-30T05:13:29.135Z,5.67
2018-07-30T05:15:58.010Z,5.80
2018-07-30T05:18:26.760Z,5.10
2018-07-30T05:20:55.620Z,6.00
2018-07-30T05:23:24.471Z,4.77
2018-07-30T05:25:53.261Z,6.00
2018-07-30T05:28:22.040Z,5.63
2018-07-30T05:30:51.109Z,5.87
2018-07-30T05:33:19.885Z,5.67
2018-07-30T05:35:48.786Z,6.37
2018-07-30T05:38:17.745Z,5.53
2018-07-30T05:40:46.553Z,5.97
2018-07-30T05:43:15.397Z,5.10
2018-07-30T05:45:44.157Z,6.40
2018-07-30T05:48:13.253Z,5.77
2018-07-30T05:50:41.863Z,5.53
2018-07-30T05:53:10.534Z,5.40
2018-07-30T05:55:39.101Z,5.47
2018-07-30T05:58:08.090Z,5.43
2018-07-30T06:00:36.957Z,6.47
2018-07-30T06:03:05.949Z,5.73
2018-07-30T06:05:34.827Z,5.10
2018-07-30T06:08:03.565Z,5.63
2018-07-30T06:10:32.342Z,5.67
2018-07-30T06:13:01.153Z,5.77
2018-07-30T06:15:29.741Z,6.20
2018-07-30T06:17:58.432Z,6.13
2018-07-30T06:20:27.089Z,5.50
2018-07-30T06:22:55.921Z,5.50
2018-07-30T06:25:24.830Z,5.67
2018-07-30T06:27:53.645Z,5.57
2018-07-30T06:30:22.681Z,5.90
2018-07-30T06:32:51.504Z,5.60
2018-07-30T06:35:20.521Z,5.57
2018-07-30T06:37:49.323Z,5.53
2018-07-30T06:40:18.078Z,6.07
2018-07-30T06:42:46.859Z,6.50
2018-07-30T06:45:15.771Z,5.27
2018-07-30T06:47:44.517Z,6.10
2018-07-30T06:50:13.303Z,5.57
2018-07-30T06:52:42.090Z,6.10
2018-07-30T06:55:10.657Z,4.93
2018-07-30T06:57:39.658Z,5.80
2018-07-30T07:00:09.553Z,6.13
2018-07-30T07:02:38.573Z,6.73
2018-07-30T07:05:07.902Z,6.30
2018-07-30T07:07:36.617Z,5.53
2018-07-30T07:10:07.613Z,5.93
2018-07-30T07:12:36.646Z,6.03
2018-07-30T07:15:06.085Z,6.37
2018-07-30T07:17:34.862Z,6.50
2018-07-30T07:20:03.694Z,6.60
2018-07-30T07:22:32.478Z,6.30
2018-07-30T07:25:01.021Z,6.83
2018-07-30T07:27:29.870Z,6.37
2018-07-30T07:29:58.973Z,6.13
2018-07-30T07:32:27.742Z,6.53
2018-07-30T07:34:56.511Z,5.53
2018-07-30T07:37:25.649Z,6.50
2018-07-30T07:39:54.753Z,6.20
2018-07-30T07:42:23.545Z,6.13
2018-07-30T07:44:52.367Z,5.67
2018-07-30T07:47:21.145Z,6.37
2018-07-30T07:49:50.757Z,6.90
2018-07-30T07:52:19.658Z,6.23
2018-07-30T07:54:48.421Z,7.07
2018-07-30T07:57:17.258Z,6.87
2018-07-30T07:59:45.881Z,6.80
2018-07-30T08:02:14.578Z,6.47
2018-07-30T08:04:43.459Z,6.13
2018-07-30T08:07:12.231Z,5.70
2018-07-30T08:09:41.280Z,6.37
2018-07-30T08:12:10.094Z,6.17
2018-07-30T08:14:38.660Z,5.83
2018-07-30T08:17:07.401Z,6.40
2018-07-30T08:19:36.178Z,6.13
2018-07-30T08:22:04.944Z,6.40
2018-07-30T08:24:33.711Z,6.07
2018-07-30T08:27:02.404Z,5.90
2018-07-30T08:29:31.206Z,6.20
2018-07-30T08:31:59.986Z,6.17
2018-07-30T08:34:28.807Z,6.10
2018-07-30T08:36:57.665Z,5.53
2018-07-30T08:39:26.205Z,5.60
2018-07-30T08:41:55.042Z,5.50
2018-07-30T08:44:23.901Z,5.83
2018-07-30T08:46:52.697Z,5.67
2018-07-30T08:49:21.318Z,6.33
2018-07-30T08:51:49.978Z,5.73
2018-07-30T08:54:18.554Z,5.43
2018-07-30T08:56:47.448Z,5.47
2018-07-30T08:59:16.225Z,5.90
2018-07-30T09:01:45.010Z,5.87
2018-07-30T09:04:13.789Z,5.20
2018-07-30T09:06:42.557Z,5.87
2018-07-30T09:09:11.668Z,6.13
2018-07-30T09:11:40.706Z,5.37
2018-07-30T09:14:09.593Z,5.57
2018-07-30T09:16:38.230Z,5.90
2018-07-30T09:19:06.988Z,5.57
2018-07-30T09:21:35.796Z,5.07
2018-07-30T09:24:04.689Z,5.33
2018-07-30T09:26:33.490Z,5.47
2018-07-30T09:29:02.514Z,5.63
2018-07-30T09:31:31.309Z,5.10
2018-07-30T09:34:00.155Z,5.50
2018-07-30T09:36:29.056Z,4.83
2018-07-30T09:38:57.913Z,5.07
2018-07-30T09:41:26.754Z,5.23
2018-07-30T09:43:55.585Z,5.10
2018-07-30T09:46:24.366Z,5.03
2018-07-30T09:48:52.949Z,5.93
2018-07-30T09:51:21.702Z,5.30
2018-07-30T09:53:50.726Z,5.07
2018-07-30T09:56:19.293Z,5.17
2018-07-30T09:58:48.156Z,5.67
2018-07-30T10:01:22.374Z,5.40
2018-07-30T10:03:51.247Z,5.17
2018-07-30T10:06:20.048Z,5.60
2018-07-30T10:08:48.589Z,4.80
2018-07-30T10:11:17.244Z,5.43
2018-07-30T10:13:46.081Z,5.30
2018-07-30T10:16:14.825Z,5.57
2018-07-30T10:18:43.852Z,4.93
2018-07-30T10:21:12.569Z,5.60
2018-07-30T10:23:41.353Z,5.60
2018-07-30T10:26:10.168Z,4.60
2018-07-30T10:28:39.010Z,4.53
2018-07-30T10:31:08.097Z,4.50
2018-07-30T10:33:36.690Z,4.63
2018-07-30T10:36:05.430Z,4.97
2018-07-30T10:38:34.250Z,4.30
2018-07-30T10:41:02.846Z,4.10
2018-07-30T10:43:31.650Z,4.20
2018-07-30T10:46:00.453Z,5.27
2018-07-30T10:48:29.392Z,4.70
2018-07-30T10:50:58.157Z,4.20
2018-07-30T10:53:26.960Z,4.10
2018-07-30T10:55:55.821Z,5.37
2018-07-30T10:58:24.703Z,4.87
2018-07-30T11:00:53.613Z,4.53
2018-07-30T11:03:22.712Z,4.87
2018-07-30T11:05:51.790Z,4.23
2018-07-30T11:08:20.574Z,4.13
2018-07-30T11:10:49.377Z,4.17
2018-07-30T11:13:18.158Z,3.93
2018-07-30T11:15:46.948Z,4.77
2018-07-30T11:18:15.847Z,5.10
2018-07-30T11:20:44.589Z,4.60
2018-07-30T11:23:13.138Z,4.27
2018-07-30T11:25:41.824Z,3.80
2018-07-30T11:28:10.718Z,3.70
2018-07-30T11:30:39.476Z,3.40
2018-07-30T11:33:08.238Z,3.80
2018-07-30T11:35:37.068Z,3.63
2018-07-30T11:38:05.777Z,3.77
2018-07-30T11:40:34.592Z,4.03
2018-07-30T11:43:03.379Z,3.90
2018-07-30T11:45:31.997Z,3.57
2018-07-30T11:48:00.721Z,3.83
2018-07-30T11:50:29.535Z,3.87
2018-07-30T11:52:58.385Z,4.27
2018-07-30T11:55:27.437Z,3.90
2018-07-30T11:57:56.213Z,3.70
2018-07-30T12:00:24.824Z,3.50
2018-07-30T12:02:54.000Z,3.57
2018-07-30T12:05:22.725Z,3.87
2018-07-30T12:07:51.412Z,3.40
2018-07-30T12:10:20.630Z,4.03
2018-07-30T12:12:49.529Z,3.93
2018-07-30T12:15:18.339Z,3.50
2018-07-30T12:17:47.141Z,3.70
2018-07-30T12:20:15.941Z,3.90
2018-07-30T12:22:44.750Z,3.73
2018-07-30T12:25:13.725Z,3.40
2018-07-30T12:27:42.554Z,3.73
2018-07-30T12:30:11.553Z,3.40
2018-07-30T12:32:40.561Z,4.03
2018-07-30T12:35:09.338Z,3.67
2018-07-30T12:37:38.101Z,3.30
2018-07-30T12:40:07.137Z,3.73
2018-07-30T12:42:35.746Z,4.00
2018-07-30T12:45:04.491Z,4.20
2018-07-30T12:47:33.205Z,3.40
2018-07-30T12:50:02.081Z,3.30
2018-07-30T12:52:30.961Z,3.10
2018-07-30T12:54:59.786Z,3.60
2018-07-30T12:57:28.324Z,3.43
2018-07-30T12:59:57.025Z,4.17
2018-07-30T13:02:25.797Z,4.13
2018-07-30T13:04:54.726Z,3.70
2018-07-30T13:07:23.563Z,3.70
2018-07-30T13:09:52.361Z,3.50
2018-07-30T13:12:21.299Z,3.60
2018-07-30T13:14:50.057Z,3.70
2018-07-30T13:17:18.881Z,3.37
2018-07-30T13:19:47.658Z,3.20
2018-07-30T13:22:16.444Z,3.40
2018-07-30T13:24:45.212Z,3.40
2018-07-30T13:27:14.105Z,3.07
2018-07-30T13:29:42.907Z,3.50
2018-07-30T13:32:11.759Z,3.20
2018-07-30T13:34:40.501Z,3.33
2018-07-30T13:37:09.295Z,3.07
2018-07-30T13:39:38.077Z,3.33
2018-07-30T13:42:06.834Z,3.27
2018-07-30T13:44:35.514Z,3.50
2018-07-30T13:47:04.053Z,3.40
2018-07-30T13:49:34.669Z,3.33
2018-07-30T13:52:03.989Z,3.37
2018-07-30T13:54:32.800Z,3.50
2018-07-30T13:57:01.802Z,3.67
2018-07-30T13:59:30.695Z,3.60
2018-07-30T14:01:59.481Z,3.37
2018-07-30T14:04:28.301Z,3.00
2018-07-30T14:06:57.122Z,3.60
2018-07-30T14:09:25.906Z,4.03
2018-07-30T14:11:54.526Z,3.40
2018-07-30T14:14:23.189Z,3.57
2018-07-30T14:16:52.007Z,3.30
2018-07-30T14:19:20.858Z,3.40
2018-07-30T14:21:49.659Z,3.40
2018-07-30T14:24:18.505Z,3.30
2018-07-30T14:26:47.309Z,3.63
2018-07-30T14:29:16.158Z,3.60
2018-07-30T14:31:44.908Z,3.60
2018-07-30T14:34:13.713Z,3.57
2018-07-30T14:36:42.519Z,3.33
2018-07-30T14:39:11.341Z,4.23
2018-07-30T14:41:40.378Z,4.90
2018-07-30T14:44:08.977Z,4.23
2018-07-30T14:46:37.665Z,4.87
2018-07-30T14:49:06.697Z,5.97
2018-07-30T14:51:35.520Z,4.80
2018-07-30T14:54:04.426Z,5.50
2018-07-30T14:56:32.964Z,5.00
2018-07-30T14:59:01.827Z,5.00
2018-07-30T15:01:30.366Z,5.43
2018-07-30T15:03:58.845Z,4.73
2018-07-30T15:06:27.356Z,4.90
2018-07-30T15:08:56.077Z,5.10
2018-07-30T15:11:24.906Z,5.60
2018-07-30T15:13:53.768Z,4.60
2018-07-30T15:16:22.625Z,5.40
2018-07-30T15:18:51.173Z,5.10
2018-07-30T15:21:19.673Z,5.13
2018-07-30T15:23:48.449Z,5.30
2018-07-30T15:26:17.069Z,5.23
2018-07-30T15:28:46.110Z,4.80
2018-07-30T15:31:14.933Z,4.90
2018-07-30T15:33:43.694Z,5.07
2018-07-30T15:36:12.445Z,5.40
2018-07-30T15:38:41.249Z,4.63
2018-07-30T15:41:10.214Z,4.93
2018-07-30T15:43:39.280Z,5.00
2018-07-30T15:46:08.304Z,4.90
2018-07-30T15:48:37.053Z,4.93
2018-07-30T15:51:05.732Z,4.17
2018-07-30T15:53:34.588Z,4.57
2018-07-30T15:56:03.421Z,4.07
2018-07-30T15:58:32.001Z,4.77
2018-07-30T16:01:00.785Z,4.87
2018-07-30T16:03:29.856Z,4.60
2018-07-30T16:05:58.617Z,4.87
2018-07-30T16:08:27.506Z,5.03
2018-07-30T16:10:56.449Z,4.90
2018-07-30T16:13:25.601Z,5.07
2018-07-30T16:15:54.413Z,4.50
2018-07-30T16:18:23.289Z,5.20
2018-07-30T16:20:52.141Z,4.80
2018-07-30T16:23:21.077Z,4.83
2018-07-30T16:25:49.762Z,4.60
2018-07-30T16:28:18.808Z,4.87
2018-07-30T16:30:47.623Z,5.33
2018-07-30T16:33:16.905Z,4.70
2018-07-30T16:35:45.801Z,5.23
2018-07-30T16:38:14.613Z,4.30
2018-07-30T16:40:43.501Z,4.37
2018-07-30T16:43:12.329Z,5.37
2018-07-30T16:45:41.115Z,5.00
2018-07-30T16:48:09.873Z,4.60
2018-07-30T16:50:38.729Z,4.63
2018-07-30T16:53:07.554Z,4.70
2018-07-30T16:55:36.450Z,4.87
2018-07-30T16:58:05.556Z,4.77
2018-07-30T17:00:34.569Z,4.57
2018-07-30T17:03:03.345Z,4.17
2018-07-30T17:05:32.162Z,4.70
2018-07-30T17:08:01.053Z,4.63
2018-07-30T17:10:29.885Z,4.83
2018-07-30T17:12:58.694Z,4.37
2018-07-30T17:15:27.488Z,4.93
2018-07-30T17:17:56.849Z,5.30
2018-07-30T17:20:25.418Z,4.60
2018-07-30T17:22:54.270Z,3.97
2018-07-30T17:25:23.029Z,4.50
2018-07-30T17:27:51.883Z,4.43
2018-07-30T17:30:20.649Z,4.40
2018-07-30T17:32:49.452Z,4.80
2018-07-30T17:35:18.313Z,4.50
2018-07-30T17:37:48.216Z,4.50
2018-07-30T17:40:17.197Z,4.60
2018-07-30T17:42:46.122Z,3.87
2018-07-30T17:45:14.932Z,5.00
2018-07-30T17:47:44.437Z,4.87
2018-07-30T17:50:13.227Z,5.30
2018-07-30T17:52:42.276Z,5.43
2018-07-30T17:55:11.181Z,5.50
2018-07-30T17:57:40.158Z,6.13
2018-07-30T18:00:09.790Z,5.80
2018-07-30T18:02:38.594Z,5.57
2018-07-30T18:05:07.823Z,6.10
2018-07-30T18:07:36.603Z,6.07
2018-07-30T18:10:05.769Z,6.17
2018-07-30T18:12:34.606Z,6.33
2018-07-30T18:15:03.481Z,6.77
2018-07-30T18:17:32.263Z,7.03
2018-07-30T18:20:01.121Z,6.27
2018-07-30T18:22:30.001Z,6.43
2018-07-30T18:24:58.896Z,6.30
2018-07-30T18:27:27.767Z,6.63
2018-07-30T18:29:56.549Z,6.37
2018-07-30T18:32:25.304Z,6.80
2018-07-30T18:34:54.153Z,6.27
2018-07-30T18:37:22.973Z,6.40
2018-07-30T18:39:51.724Z,6.67
2018-07-30T18:42:20.542Z,6.50
2018-07-30T18:44:49.377Z,6.10
2018-07-30T18:47:18.152Z,6.43
2018-07-30T18:49:46.970Z,8.20
2018-07-30T18:52:15.726Z,7.37
2018-07-30T18:54:44.535Z,7.03
2018-07-30T18:57:13.472Z,7.47
2018-07-30T18:59:42.237Z,7.23
2018-07-30T19:02:11.111Z,7.23
2018-07-30T19:04:40.906Z,7.13
2018-07-30T19:07:09.874Z,7.17
2018-07-30T19:09:38.785Z,7.67
2018-07-30T19:12:07.469Z,7.40
2018-07-30T19:14:36.177Z,7.17
2018-07-30T19:17:04.953Z,7.37
2018-07-30T19:19:33.733Z,7.83
2018-07-30T19:22:02.606Z,8.20
2018-07-30T19:24:31.356Z,7.33
2018-07-30T19:27:00.149Z,7.20
2018-07-30T19:29:28.912Z,7.17
2018-07-30T19:31:57.730Z,7.50
2018-07-30T19:34:26.481Z,7.73
2018-07-30T19:36:55.268Z,7.23
2018-07-30T19:39:24.058Z,7.20
2018-07-30T19:41:53.389Z,9.00
2018-07-30T19:44:22.223Z,8.57
2018-07-30T19:46:50.925Z,8.00
2018-07-30T19:49:19.689Z,8.63
2018-07-30T19:51:48.469Z,9.20
2018-07-30T19:54:17.242Z,9.43
2018-07-30T19:56:45.996Z,9.60
2018-07-30T19:59:14.881Z,9.33
2018-07-30T20:01:43.641Z,8.93
2018-07-30T20:04:12.405Z,9.17
2018-07-30T20:06:41.358Z,10.53
2018-07-30T20:09:11.733Z,9.37
2018-07-30T20:11:40.506Z,9.87
2018-07-30T20:14:09.253Z,9.37
2018-07-30T20:16:38.029Z,9.93
2018-07-30T20:19:06.617Z,9.87
2018-07-30T20:21:35.413Z,9.20
2018-07-30T20:24:03.980Z,9.43
2018-07-30T20:26:32.613Z,10.40
2018-07-30T20:29:01.265Z,10.53
2018-07-30T20:31:29.869Z,10.17
2018-07-30T20:33:59.046Z,10.40
2018-07-30T20:36:29.280Z,10.53
2018-07-30T20:38:57.993Z,8.97
2018-07-30T20:41:26.838Z,9.80
2018-07-30T20:43:55.378Z,9.77
2018-07-30T20:46:24.070Z,9.87
2018-07-30T20:48:52.873Z,8.90
2018-07-30T20:51:21.649Z,9.40
2018-07-30T20:53:50.622Z,9.57
2018-07-30T20:56:19.160Z,9.60
2018-07-30T20:58:47.624Z,9.83
2018-07-30T21:01:16.152Z,10.20
2018-07-30T21:03:44.865Z,9.43
2018-07-30T21:06:13.793Z,8.83
2018-07-30T21:08:42.585Z,10.00
2018-07-30T21:11:11.208Z,9.60
2018-07-30T21:13:39.919Z,9.57
2018-07-30T21:16:08.733Z,9.43
2018-07-30T21:18:37.521Z,10.00
2018-07-30T21:21:06.345Z,9.40
2018-07-30T21:23:34.960Z,8.97
2018-07-30T21:26:03.653Z,9.13
2018-07-30T21:28:32.319Z,9.20
2018-07-30T21:31:01.100Z,9.10
2018-07-30T21:33:30.177Z,8.97
2018-07-30T21:35:59.037Z,9.27
2018-07-30T21:38:27.817Z,8.87
2018-07-30T21:40:56.570Z,8.87
2018-07-30T21:43:25.329Z,8.37
2018-07-30T21:45:54.136Z,9.30
2018-07-30T21:48:22.805Z,9.17
2018-07-30T21:50:51.581Z,9.33
2018-07-30T21:53:20.734Z,8.57
2018-07-30T21:55:49.292Z,8.53
2018-07-30T21:58:18.311Z,9.37
2018-07-30T22:00:52.220Z,8.47
2018-07-30T22:03:20.930Z,7.80
2018-07-30T22:05:55.661Z,8.40
2018-07-30T22:08:24.602Z,8.40
2018-07-30T22:10:53.185Z,8.13
2018-07-30T22:13:21.881Z,8.30
2018-07-30T22:15:50.455Z,7.77
2018-07-30T22:18:19.451Z,7.43
2018-07-30T22:20:48.185Z,7.57
2018-07-30T22:23:17.056Z,7.40
2018-07-30T22:25:46.171Z,7.07
2018-07-30T22:28:15.134Z,7.67
2018-07-30T22:30:44.115Z,7.30
2018-07-30T22:33:12.620Z,7.80
2018-07-30T22:35:41.273Z,7.57
2018-07-30T22:38:09.830Z,7.30
2018-07-30T22:40:38.502Z,6.60
2018-07-30T22:43:07.876Z,6.40
2018-07-30T22:45:36.665Z,6.53
2018-07-30T22:48:05.541Z,7.03
2018-07-30T22:50:34.513Z,6.53
2018-07-30T22:53:03.264Z,6.57
2018-07-30T22:55:31.955Z,6.03
2018-07-30T22:58:00.749Z,6.00
2018-07-30T23:00:29.570Z,5.97
2018-07-30T23:02:58.316Z,5.83
2018-07-30T23:05:27.109Z,5.97
2018-07-30T23:07:55.882Z,6.50
2018-07-30T23:10:24.674Z,6.40
2018-07-30T23:12:53.529Z,6.00
2018-07-30T23:15:22.281Z,6.17
2018-07-30T23:17:51.130Z,5.90
2018-07-30T23:20:19.920Z,6.30
2018-07-30T23:22:48.689Z,7.30
2018-07-30T23:25:17.445Z,6.20
2018-07-30T23:27:46.242Z,5.87
2018-07-30T23:30:15.198Z,5.77
2018-07-30T23:32:43.977Z,5.87
2018-07-30T23:35:12.731Z,5.40
2018-07-30T23:37:41.517Z,6.10
2018-07-30T23:40:10.297Z,6.10
2018-07-30T23:42:38.894Z,6.10
2018-07-30T23:45:07.738Z,6.33
2018-07-30T23:47:36.492Z,5.83
2018-07-30T23:50:05.398Z,5.90
2018-07-30T23:52:34.184Z,6.60
2018-07-30T23:55:03.043Z,6.07
2018-07-30T23:57:31.713Z,5.93
